createdAt,value
2022-09-06T00:00:00.272Z,20.7
2022-09-06T00:05:00.132Z,20.6
2022-09-06T00:10:00.327Z,20.6
2022-09-06T00:15:00.130Z,20.5
2022-09-06T00:20:00.249Z,20.5
2022-09-06T00:25:00.241Z,20.5
2022-09-06T00:30:00.225Z,20.4
2022-09-06T00:35:00.163Z,20.4
2022-09-06T00:40:00.490Z,20.4
2022-09-06T00:45:00.133Z,20.4
2022-09-06T00:50:00.238Z,20.3
2022-09-06T00:55:00.193Z,20.3
2022-09-06T01:00:00.291Z,20.3
2022-09-06T01:05:00.218Z,20.2
2022-09-06T01:10:00.278Z,20.2
2022-09-06T01:15:00.253Z,20.2
2022-09-06T01:20:00.195Z,20.2
2022-09-06T01:25:00.213Z,20.2
2022-09-06T01:30:00.288Z,20.1
2022-09-06T01:35:00.153Z,20.1
2022-09-06T01:40:00.357Z,20.1
2022-09-06T01:45:00.145Z,20.1
2022-09-06T01:50:00.232Z,20
2022-09-06T01:55:00.260Z,20
2022-09-06T02:00:00.289Z,20
2022-09-06T02:05:00.150Z,20
2022-09-06T02:10:00.257Z,20
2022-09-06T02:15:00.213Z,20.1
2022-09-06T02:20:00.222Z,20.1
2022-09-06T02:25:00.142Z,20.1
2022-09-06T02:30:00.249Z,20.1
2022-09-06T02:35:00.228Z,20.2
2022-09-06T02:40:00.379Z,20.2
2022-09-06T02:45:00.229Z,20.2
2022-09-06T02:50:00.247Z,20.2
2022-09-06T02:55:00.136Z,20.2
2022-09-06T03:00:00.278Z,20.2
2022-09-06T03:05:00.218Z,20.2
2022-09-06T03:10:00.280Z,20.2
2022-09-06T03:15:00.313Z,20.3
2022-09-06T03:20:00.215Z,20.3
2022-09-06T03:25:00.215Z,20.3
2022-09-06T03:30:00.259Z,20.3
2022-09-06T03:35:00.233Z,20.2
2022-09-06T03:40:00.447Z,20.2
2022-09-06T03:45:00.272Z,20.3
2022-09-06T03:50:00.259Z,20.2
2022-09-06T03:55:00.258Z,20.2
2022-09-06T04:00:00.262Z,20.2
2022-09-06T04:05:00.268Z,20.2
2022-09-06T04:10:00.244Z,20.2
2022-09-06T04:15:00.307Z,20.2
2022-09-06T04:20:00.239Z,20.2
2022-09-06T04:25:00.289Z,20.2
2022-09-06T04:30:00.315Z,20.2
2022-09-06T04:35:00.261Z,20.2
2022-09-06T04:40:00.484Z,20.2
2022-09-06T04:45:00.234Z,20.2
2022-09-06T04:50:00.303Z,20.2
2022-09-06T04:55:00.216Z,20.2
2022-09-06T05:00:00.307Z,20.1
2022-09-06T05:05:00.270Z,20.1
2022-09-06T05:10:00.318Z,20
2022-09-06T05:15:00.276Z,20
2022-09-06T05:20:00.215Z,19.9
2022-09-06T05:25:00.187Z,19.8
2022-09-06T05:30:00.338Z,19.8
2022-09-06T05:35:00.224Z,19.8
2022-09-06T05:40:00.423Z,19.8
2022-09-06T05:45:00.304Z,19.8
2022-09-06T05:50:00.259Z,19.7
2022-09-06T05:55:00.322Z,19.7
2022-09-06T06:00:00.266Z,19.7
2022-09-06T06:05:00.358Z,19.7
2022-09-06T06:10:00.288Z,19.7
2022-09-06T06:15:00.289Z,19.6
2022-09-06T06:20:00.272Z,19.7
2022-09-06T06:25:00.269Z,19.7
2022-09-06T06:30:00.349Z,19.7
2022-09-06T06:35:00.263Z,19.8
2022-09-06T06:40:00.434Z,19.8
2022-09-06T06:45:00.242Z,19.8
2022-09-06T06:50:00.303Z,19.8
2022-09-06T06:55:00.287Z,19.9
2022-09-06T07:00:00.388Z,19.9
2022-09-06T07:05:00.696Z,20
2022-09-06T07:15:00.271Z,20.2
2022-09-06T07:20:16.067Z,20.2
2022-09-06T07:25:00.253Z,20.4
2022-09-06T07:30:00.306Z,20.4
2022-09-06T07:35:00.312Z,20.6
2022-09-06T07:40:00.416Z,20.6
2022-09-06T07:45:00.236Z,20.8
2022-09-06T07:55:00.247Z,21
2022-09-06T08:00:00.324Z,21.2
2022-09-06T08:05:00.275Z,21.2
2022-09-06T08:10:00.370Z,21.4
2022-09-06T08:15:00.299Z,21.5
2022-09-06T08:20:05.233Z,21.6
2022-09-06T08:25:00.239Z,21.6
2022-09-06T08:30:00.280Z,21.8
2022-09-06T08:35:00.282Z,22
2022-09-06T08:40:00.409Z,22.1
2022-09-06T08:45:00.227Z,22.2
2022-09-06T08:50:00.303Z,22.2
2022-09-06T08:55:00.253Z,22.3
2022-09-06T09:00:00.284Z,22.4
2022-09-06T09:05:00.289Z,22.6
2022-09-06T09:10:00.323Z,22.8
2022-09-06T09:15:00.226Z,22.8
2022-09-06T09:20:00.294Z,22.9
2022-09-06T09:25:00.205Z,23
2022-09-06T09:35:00.319Z,23.3
2022-09-06T09:40:00.465Z,23.3
2022-09-06T09:45:00.281Z,23.4
2022-09-06T09:50:00.283Z,23.4
2022-09-06T09:55:00.261Z,23.6
2022-09-06T10:00:00.367Z,23.6
2022-09-06T10:05:00.280Z,23.8
2022-09-06T10:10:00.280Z,24
2022-09-06T10:15:02.493Z,24.2
2022-09-06T10:20:00.322Z,24.3
2022-09-06T10:25:00.284Z,24.5
2022-09-06T10:30:00.246Z,24.6
2022-09-06T10:35:00.294Z,24.7
2022-09-06T10:40:00.395Z,24.9
2022-09-06T10:45:00.295Z,25
2022-09-06T10:50:00.296Z,25.1
2022-09-06T10:55:00.212Z,25.1
2022-09-06T11:00:00.260Z,25.2
2022-09-06T11:10:00.391Z,25.3
2022-09-06T11:15:00.249Z,25.4
2022-09-06T11:20:00.226Z,25.4
2022-09-06T11:25:00.261Z,25.5
2022-09-06T11:30:00.272Z,25.6
2022-09-06T11:35:00.265Z,25.7
2022-09-06T11:40:29.890Z,25.8
2022-09-06T11:45:00.185Z,25.9
2022-09-06T11:50:00.270Z,26
2022-09-06T11:55:00.203Z,26.1
2022-09-06T12:00:00.461Z,26.2
2022-09-06T12:05:00.737Z,26.2
2022-09-06T12:10:00.280Z,26.3
2022-09-06T12:15:00.191Z,26.4
2022-09-06T12:20:00.244Z,26.5
2022-09-06T12:25:00.261Z,26.6
2022-09-06T12:30:00.289Z,26.6
2022-09-06T12:40:00.418Z,26.8
2022-09-06T12:45:00.233Z,26.9
2022-09-06T12:50:00.260Z,27
2022-09-06T12:55:00.275Z,27.2
2022-09-06T13:00:00.358Z,27.3
2022-09-06T13:05:00.284Z,27.5
2022-09-06T13:10:00.356Z,27.6
2022-09-06T13:15:00.272Z,27.7
2022-09-06T13:20:00.298Z,27.8
2022-09-06T13:25:00.317Z,27.9
2022-09-06T13:30:00.301Z,28
2022-09-06T13:35:00.282Z,28.1
2022-09-06T13:40:00.434Z,28.2
2022-09-06T13:45:02.293Z,28.2
2022-09-06T13:50:00.430Z,28.2
2022-09-06T13:55:00.269Z,28.3
2022-09-06T14:00:00.437Z,28.4
2022-09-06T14:05:00.223Z,28.5
2022-09-06T14:10:00.403Z,28.6
2022-09-06T14:15:00.271Z,28.7
2022-09-06T14:20:00.410Z,28.7
2022-09-06T14:25:00.264Z,28.8
2022-09-06T14:30:00.384Z,29
2022-09-06T14:35:00.261Z,29
2022-09-06T14:40:00.481Z,29
2022-09-06T14:45:00.271Z,29.1
2022-09-06T14:50:00.298Z,29.2
2022-09-06T14:55:00.292Z,29.2
2022-09-06T15:00:00.509Z,29.3
2022-09-06T15:05:00.280Z,29.3
2022-09-06T15:10:00.230Z,29.4
2022-09-06T15:15:00.231Z,29.6
2022-09-06T15:20:00.271Z,29.8
2022-09-06T15:25:00.239Z,29.7
2022-09-06T15:30:00.310Z,29.7
2022-09-06T15:35:04.324Z,29.7
2022-09-06T15:40:00.322Z,29.7
2022-09-06T15:45:00.221Z,29.7
2022-09-06T15:50:00.272Z,29.7
2022-09-06T15:55:00.255Z,29.6
2022-09-06T16:00:00.286Z,29.7
2022-09-06T16:05:00.315Z,29.7
2022-09-06T16:10:00.316Z,29.7
2022-09-06T16:15:00.260Z,29.6
2022-09-06T16:20:00.322Z,29.5
2022-09-06T16:25:00.211Z,29.4
2022-09-06T16:30:00.737Z,29.3
2022-09-06T16:35:00.228Z,29.2
2022-09-06T16:40:00.390Z,29.1
2022-09-06T16:45:00.268Z,29
2022-09-06T16:50:00.300Z,29
2022-09-06T16:55:00.205Z,28.9
2022-09-06T17:00:00.304Z,28.8
2022-09-06T17:05:00.220Z,28.6
2022-09-06T17:10:00.242Z,28.6
2022-09-06T17:15:00.192Z,28.5
2022-09-06T17:20:00.213Z,28.4
2022-09-06T17:25:00.304Z,28.3
2022-09-06T17:30:05.520Z,28.1
2022-09-06T17:35:00.217Z,28
2022-09-06T17:40:00.377Z,27.8
2022-09-06T17:45:00.217Z,27.7
2022-09-06T17:50:00.266Z,27.5
2022-09-06T17:55:00.278Z,27.3
2022-09-06T18:00:00.323Z,27.2
2022-09-06T18:05:00.292Z,27
2022-09-06T18:10:00.284Z,26.9
2022-09-06T18:15:00.246Z,26.7
2022-09-06T18:20:00.283Z,26.6
2022-09-06T18:25:00.266Z,26.4
2022-09-06T18:30:00.331Z,26.3
2022-09-06T18:35:00.186Z,26.1
2022-09-06T18:40:00.329Z,26
2022-09-06T18:45:00.290Z,25.8
2022-09-06T18:50:00.229Z,25.6
2022-09-06T18:55:00.241Z,25.5
2022-09-06T19:00:00.257Z,25.4
2022-09-06T19:05:00.361Z,25.2
2022-09-06T19:10:00.331Z,25
2022-09-06T19:15:00.267Z,24.9
2022-09-06T19:20:00.282Z,24.8
2022-09-06T19:25:00.319Z,24.7
2022-09-06T19:30:00.299Z,24.6
2022-09-06T19:35:00.331Z,24.4
2022-09-06T19:40:00.419Z,24.4
2022-09-06T19:45:00.248Z,24.3
2022-09-06T19:50:00.292Z,24.2
2022-09-06T19:55:00.270Z,24
2022-09-06T20:00:00.347Z,23.9
2022-09-06T20:05:00.275Z,23.8
2022-09-06T20:10:00.247Z,23.7
2022-09-06T20:15:00.211Z,23.6
2022-09-06T20:20:00.287Z,23.6
2022-09-06T20:25:00.211Z,23.5
2022-09-06T20:30:00.247Z,23.4
2022-09-06T20:35:00.311Z,23.3
2022-09-06T20:40:00.409Z,23.2
2022-09-06T20:45:00.305Z,23.2
2022-09-06T20:50:00.261Z,23.1
2022-09-06T20:55:00.316Z,23
2022-09-06T21:00:00.247Z,22.9
2022-09-06T21:05:00.227Z,22.9
2022-09-06T21:10:00.290Z,22.8
2022-09-06T21:15:00.234Z,22.8
2022-09-06T21:20:00.242Z,22.7
2022-09-06T21:25:00.205Z,22.7
2022-09-06T21:30:00.258Z,22.6
2022-09-06T21:35:00.130Z,22.6
2022-09-06T21:40:00.392Z,22.6
2022-09-06T21:45:00.225Z,22.5
2022-09-06T21:50:00.259Z,22.5
2022-09-06T21:55:00.192Z,22.4
2022-09-06T22:00:00.338Z,22.3
2022-09-06T22:05:00.158Z,22.3
2022-09-06T22:10:00.249Z,22.2
2022-09-06T22:15:00.151Z,22.2
2022-09-06T22:20:00.309Z,22.1
2022-09-06T22:25:00.151Z,22
2022-09-06T22:30:00.288Z,22
2022-09-06T22:35:00.268Z,22
2022-09-06T22:40:00.429Z,22
2022-09-06T22:45:00.207Z,22
2022-09-06T22:50:00.325Z,22
2022-09-06T22:55:00.231Z,22
2022-09-06T23:00:00.268Z,22
2022-09-06T23:05:00.305Z,22
2022-09-06T23:10:00.292Z,22
2022-09-06T23:15:00.134Z,22
2022-09-06T23:20:00.293Z,22
2022-09-06T23:25:00.133Z,22
2022-09-06T23:30:00.261Z,21.9
2022-09-06T23:35:00.238Z,21.9
2022-09-06T23:40:00.328Z,21.9
2022-09-06T23:45:00.166Z,21.9
2022-09-06T23:50:00.280Z,21.8
2022-09-06T23:55:00.148Z,21.8
